ケルン/ボン の空港の天気 - METARとTAF

ケルン・ボン空港 ( EDDK / CGN ) - ドイツ ケルン/ボン
飛行場実況気象(Metar)
観測時間02/05 20:20 CET (02/05 19:20 UTC)
風向・風速北 4m/s
視程10km以上
天気現象
全天の8割程度の雲 雲底高度 790m
全天の8割程度の雲 雲底高度 1070m
全天の8割程度の雲 雲底高度 1490m
気温5℃
湿度87%
気圧1039hPa
METAREDDK 051920Z AUTO 35007KT 9999 BKN026 BKN035 BKN049 05/03 Q1039 NOSIG
過去の天気等 Google飛行場航空写真 Wunderground天気予報

過去48時間のMETAR

飛行場予報(TAF)
発表時間: 2/05 18:00 CET (2/05 17:00 UTC)
予報対象時間: 5日19時 CET ~ 7日1時 CET
風向・風速北北西 5m/s
視程10km以上
全天の8割程度の雲 雲底高度 610m
5日19時 CET ~ 5日21時 CET に 確率 30% で一時的に
全天の8割程度の雲 雲底高度 400m
5日22時 CET ~ 6日1時 CET に徐々に
風向・風速北北西 2m/s
6日8時 CET ~ 6日12時 CET に一時的に
視程4000m
天気現象もや
全天の8割程度の雲 雲底高度 150m
6日18時 CET ~ 6日21時 CET に徐々に
風向・風速東 3m/s
TAF EDDK 051700Z 0518/0624 34009KT 9999 BKN020
PROB30 TEMPO 0518/0520 BKN013
BECMG 0521/0524 34004KT
TEMPO 0607/0611 4000 BR BKN005
BECMG 0617/0620 09005KT